createdAt,value
2022-09-23T00:01:11.546Z,8.60
2022-09-23T00:03:42.218Z,8.60
2022-09-23T00:06:11.502Z,8.60
2022-09-23T00:08:39.019Z,8.50
2022-09-23T00:11:12.658Z,8.50
2022-09-23T00:13:40.533Z,8.50
2022-09-23T00:16:10.681Z,8.50
2022-09-23T00:18:37.339Z,8.40
2022-09-23T00:21:09.530Z,8.30
2022-09-23T00:23:37.001Z,8.30
2022-09-23T00:26:07.063Z,8.30
2022-09-23T00:28:34.805Z,8.20
2022-09-23T00:31:07.777Z,8.10
2022-09-23T00:33:34.355Z,8.00
2022-09-23T00:36:06.566Z,8.00
2022-09-23T00:38:33.931Z,8.00
2022-09-23T00:41:00.912Z,7.90
2022-09-23T00:43:50.551Z,7.90
2022-09-23T00:46:29.906Z,7.90
2022-09-23T00:49:01.931Z,7.90
2022-09-23T00:51:35.125Z,8.00
2022-09-23T00:54:03.098Z,7.90
2022-09-23T00:56:31.568Z,8.10
2022-09-23T00:59:00.305Z,7.90
2022-09-23T01:01:27.259Z,7.90
2022-09-23T01:03:54.524Z,7.90
2022-09-23T01:06:21.830Z,7.80
2022-09-23T01:08:48.735Z,7.70
2022-09-23T01:11:24.591Z,7.70
2022-09-23T01:13:57.412Z,7.70
2022-09-23T01:16:47.899Z,7.70
2022-09-23T01:19:36.123Z,7.70
2022-09-23T01:22:33.051Z,7.70
2022-09-23T01:25:21.928Z,7.60
2022-09-23T01:28:04.402Z,7.60
2022-09-23T01:30:58.410Z,7.60
2022-09-23T01:33:28.218Z,7.60
2022-09-23T01:36:32.736Z,7.50
2022-09-23T01:39:24.567Z,7.60
2022-09-23T01:42:17.674Z,7.60
2022-09-23T01:44:52.990Z,7.60
2022-09-23T01:47:27.712Z,7.60
2022-09-23T01:50:03.276Z,7.60
2022-09-23T01:52:40.599Z,7.70
2022-09-23T01:55:11.136Z,7.80
2022-09-23T01:57:45.766Z,7.80
2022-09-23T02:00:15.583Z,7.80
2022-09-23T02:03:04.236Z,8.00
2022-09-23T02:05:37.790Z,8.00
2022-09-23T02:08:13.950Z,8.00
2022-09-23T02:10:52.427Z,8.10
2022-09-23T02:14:02.675Z,8.10
2022-09-23T02:16:36.088Z,8.10
2022-09-23T02:19:11.892Z,8.20
2022-09-23T02:21:47.253Z,8.20
2022-09-23T02:24:22.278Z,8.20
2022-09-23T02:26:58.486Z,8.20
2022-09-23T02:29:34.047Z,8.30
2022-09-23T02:32:12.933Z,8.20
2022-09-23T02:35:03.663Z,8.30
2022-09-23T02:37:43.779Z,8.30
2022-09-23T02:40:34.700Z,8.30
2022-09-23T02:43:13.027Z,8.40
2022-09-23T02:45:40.046Z,8.40
2022-09-23T02:48:18.266Z,8.50
2022-09-23T02:50:48.000Z,8.50
2022-09-23T02:53:18.405Z,8.60
2022-09-23T02:55:45.508Z,8.60
2022-09-23T02:58:13.999Z,8.60
2022-09-23T03:00:59.581Z,8.70
2022-09-23T03:03:54.070Z,8.70
2022-09-23T03:06:28.761Z,8.80
2022-09-23T03:09:08.799Z,8.80
2022-09-23T03:11:40.091Z,8.80
2022-09-23T03:14:25.851Z,8.80
2022-09-23T03:17:04.021Z,8.80
2022-09-23T03:19:42.604Z,8.90
2022-09-23T03:22:18.354Z,8.90
2022-09-23T03:24:50.662Z,8.90
2022-09-23T03:27:25.480Z,8.90
2022-09-23T03:29:54.440Z,9.00
2022-09-23T03:32:24.403Z,9.20
2022-09-23T03:34:54.168Z,9.10
2022-09-23T03:37:39.649Z,9.30
2022-09-23T03:40:16.423Z,9.20
2022-09-23T03:42:43.860Z,9.30
2022-09-23T03:45:18.775Z,9.50
2022-09-23T03:47:46.443Z,9.40
2022-09-23T03:50:13.815Z,9.60
2022-09-23T03:52:41.015Z,9.60
2022-09-23T03:55:08.861Z,9.60
2022-09-23T03:57:36.261Z,9.60
2022-09-23T04:00:05.341Z,9.60
2022-09-23T04:02:32.476Z,9.60
2022-09-23T04:04:59.580Z,9.50
2022-09-23T04:07:26.080Z,9.60
2022-09-23T04:09:53.354Z,9.50
2022-09-23T04:12:20.070Z,9.50
2022-09-23T04:14:46.974Z,9.50
2022-09-23T04:17:13.726Z,9.50
2022-09-23T04:19:41.013Z,9.40
2022-09-23T04:22:09.556Z,9.50
2022-09-23T04:24:36.082Z,9.50
2022-09-23T04:27:03.436Z,9.50
2022-09-23T04:29:29.945Z,9.50
2022-09-23T04:31:58.009Z,9.50
2022-09-23T04:34:24.587Z,9.50
2022-09-23T04:36:51.544Z,9.50
2022-09-23T04:39:18.660Z,9.40
2022-09-23T04:41:46.302Z,9.50
2022-09-23T04:44:14.395Z,9.40
2022-09-23T04:46:42.128Z,9.50
2022-09-23T04:49:09.007Z,9.30
2022-09-23T04:51:36.423Z,9.30
2022-09-23T04:54:03.385Z,9.50
2022-09-23T04:56:34.235Z,9.50
2022-09-23T04:59:02.072Z,9.40
2022-09-23T05:01:34.293Z,9.50
2022-09-23T05:04:05.527Z,9.50
2022-09-23T05:06:36.817Z,9.50
2022-09-23T05:09:06.936Z,9.40
2022-09-23T05:11:34.738Z,9.40
2022-09-23T05:14:01.652Z,9.50
2022-09-23T05:16:28.608Z,9.60
2022-09-23T05:18:55.263Z,9.60
2022-09-23T05:21:24.236Z,9.60
2022-09-23T05:23:59.150Z,9.70
2022-09-23T05:26:28.593Z,9.70
2022-09-23T05:28:56.383Z,9.80
2022-09-23T05:31:26.135Z,9.90
2022-09-23T05:33:57.554Z,9.80
2022-09-23T05:36:26.192Z,9.80
2022-09-23T05:38:52.913Z,9.90
2022-09-23T05:41:22.839Z,9.90
2022-09-23T05:43:52.014Z,10.00
2022-09-23T05:46:27.812Z,10.10
2022-09-23T05:49:01.149Z,10.10
2022-09-23T05:51:31.190Z,10.10
2022-09-23T05:53:59.484Z,10.20
2022-09-23T05:56:27.763Z,10.20
2022-09-23T05:58:56.946Z,10.30
2022-09-23T06:01:25.922Z,10.40
2022-09-23T06:03:57.550Z,10.40
2022-09-23T06:06:39.600Z,10.40
2022-09-23T06:09:07.696Z,10.60
2022-09-23T06:11:36.043Z,10.80
2022-09-23T06:14:03.267Z,10.70
2022-09-23T06:16:32.856Z,10.80
2022-09-23T06:19:06.269Z,10.80
2022-09-23T06:21:38.542Z,11.00
2022-09-23T06:24:07.068Z,11.10
2022-09-23T06:26:35.072Z,11.10
2022-09-23T06:29:02.726Z,11.20
2022-09-23T06:31:30.174Z,11.20
2022-09-23T06:34:07.612Z,11.30
2022-09-23T06:36:43.769Z,11.40
2022-09-23T06:39:12.193Z,11.40
2022-09-23T06:41:39.201Z,11.50
2022-09-23T06:44:05.934Z,11.40
2022-09-23T06:46:32.577Z,11.50
2022-09-23T06:48:59.205Z,11.50
2022-09-23T06:51:26.121Z,11.60
2022-09-23T06:53:53.231Z,11.60
2022-09-23T06:56:21.880Z,11.60
2022-09-23T06:58:48.686Z,11.90
2022-09-23T07:01:17.376Z,11.90
2022-09-23T07:03:47.191Z,12.20
2022-09-23T07:06:14.190Z,12.30
2022-09-23T07:08:44.730Z,12.50
2022-09-23T07:11:12.994Z,12.70
2022-09-23T07:13:41.150Z,12.80
2022-09-23T07:16:08.262Z,12.90
2022-09-23T07:18:37.180Z,13.20
2022-09-23T07:21:09.755Z,13.30
2022-09-23T07:23:37.611Z,13.40
2022-09-23T07:26:04.962Z,13.50
2022-09-23T07:28:32.126Z,13.60
2022-09-23T07:31:07.602Z,13.70
2022-09-23T07:33:36.463Z,13.80
2022-09-23T07:36:12.866Z,13.80
2022-09-23T07:38:44.940Z,13.80
2022-09-23T07:41:17.690Z,13.80
2022-09-23T07:43:45.268Z,13.70
2022-09-23T07:46:16.636Z,13.80
2022-09-23T07:48:44.982Z,13.80
2022-09-23T07:51:25.358Z,13.80
2022-09-23T07:53:53.954Z,13.90
2022-09-23T07:56:24.071Z,14.00
2022-09-23T07:59:00.609Z,13.90
2022-09-23T08:01:35.879Z,13.90
2022-09-23T08:04:24.899Z,14.00
2022-09-23T08:07:01.247Z,14.10
2022-09-23T08:09:31.847Z,14.10
2022-09-23T08:11:58.942Z,14.10
2022-09-23T08:14:25.994Z,14.10
2022-09-23T08:16:53.979Z,14.00
2022-09-23T08:19:21.515Z,14.00
2022-09-23T08:21:48.130Z,14.00
2022-09-23T08:24:19.272Z,14.00
2022-09-23T08:26:47.525Z,14.10
2022-09-23T08:29:15.771Z,14.00
2022-09-23T08:31:42.745Z,14.10
2022-09-23T08:34:09.308Z,14.00
2022-09-23T08:36:36.394Z,14.10
2022-09-23T08:39:04.486Z,14.20
2022-09-23T08:42:07.440Z,14.20
2022-09-23T08:44:57.151Z,14.30
2022-09-23T08:47:28.275Z,14.40
2022-09-23T08:50:00.570Z,14.40
2022-09-23T08:52:42.900Z,14.50
2022-09-23T08:55:13.573Z,14.60
2022-09-23T08:58:24.602Z,14.60
2022-09-23T09:01:24.179Z,14.70
2022-09-23T09:03:54.311Z,14.70
2022-09-23T09:06:45.586Z,14.80
2022-09-23T09:09:45.806Z,14.90
2022-09-23T09:12:32.509Z,15.00
2022-09-23T09:15:06.855Z,15.00
2022-09-23T09:18:03.241Z,15.00
2022-09-23T09:20:57.649Z,15.10
2022-09-23T09:23:51.366Z,15.10
2022-09-23T09:26:24.760Z,15.20
2022-09-23T09:29:34.885Z,15.20
2022-09-23T09:32:15.035Z,15.20
2022-09-23T09:34:53.958Z,15.30
2022-09-23T09:37:31.652Z,15.30
2022-09-23T09:39:58.763Z,15.40
2022-09-23T09:42:40.286Z,15.40
2022-09-23T09:45:20.161Z,15.50
2022-09-23T09:48:20.562Z,15.40
2022-09-23T09:50:49.014Z,15.50
2022-09-23T09:53:20.947Z,15.50
2022-09-23T09:56:02.236Z,15.60
2022-09-23T09:58:51.948Z,15.70
2022-09-23T10:01:31.246Z,15.60
2022-09-23T10:04:06.746Z,15.70
2022-09-23T10:06:35.819Z,15.60
2022-09-23T10:09:10.922Z,15.70
2022-09-23T10:11:38.716Z,15.70
2022-09-23T10:14:19.576Z,15.80
2022-09-23T10:17:02.153Z,15.80
2022-09-23T10:19:29.531Z,15.90
2022-09-23T10:22:00.207Z,15.90
2022-09-23T10:24:30.513Z,16.00
2022-09-23T10:27:02.169Z,15.90
2022-09-23T10:29:48.320Z,16.10
2022-09-23T10:32:22.855Z,16.20
2022-09-23T10:34:53.888Z,16.30
2022-09-23T10:37:41.596Z,16.20
2022-09-23T10:40:58.239Z,16.40
2022-09-23T10:44:04.187Z,16.40
2022-09-23T10:46:46.252Z,16.40
2022-09-23T10:49:40.909Z,16.40
2022-09-23T10:52:44.788Z,16.40
2022-09-23T10:55:28.010Z,16.50
2022-09-23T10:58:23.661Z,16.50
2022-09-23T11:01:13.285Z,16.60
2022-09-23T11:04:02.033Z,16.60
2022-09-23T11:06:46.695Z,16.50
2022-09-23T11:09:40.518Z,16.50
2022-09-23T11:12:44.988Z,16.20
2022-09-23T11:15:31.032Z,16.60
2022-09-23T11:18:19.565Z,16.60
2022-09-23T11:21:04.569Z,16.60
2022-09-23T11:23:51.826Z,16.70
2022-09-23T11:26:41.259Z,16.80
2022-09-23T11:29:44.309Z,16.90
2022-09-23T11:32:51.173Z,17.00
2022-09-23T11:35:27.265Z,17.10
2022-09-23T11:38:08.198Z,17.00
2022-09-23T11:40:45.492Z,17.20
2022-09-23T11:43:23.387Z,17.30
2022-09-23T11:45:58.597Z,17.30
2022-09-23T11:48:41.586Z,17.40
2022-09-23T11:51:21.846Z,17.30
2022-09-23T11:54:17.275Z,17.50
2022-09-23T11:56:53.608Z,17.50
2022-09-23T11:59:46.502Z,17.50
2022-09-23T12:02:58.922Z,17.60
2022-09-23T12:05:39.666Z,17.60
2022-09-23T12:08:33.640Z,17.60
2022-09-23T12:11:26.988Z,17.70
2022-09-23T12:14:14.104Z,17.80
2022-09-23T12:16:43.780Z,17.90
2022-09-23T12:19:39.494Z,18.00
2022-09-23T12:22:33.923Z,18.20
2022-09-23T12:25:10.260Z,18.40
2022-09-23T12:27:45.622Z,18.50
2022-09-23T12:30:21.686Z,18.60
2022-09-23T12:32:49.371Z,18.70
2022-09-23T12:35:26.572Z,18.80
2022-09-23T12:37:53.550Z,18.90
2022-09-23T12:40:20.461Z,18.90
2022-09-23T12:42:48.699Z,18.80
2022-09-23T12:45:33.073Z,18.90
2022-09-23T12:48:04.357Z,19.00
2022-09-23T12:50:49.000Z,19.00
2022-09-23T12:53:33.797Z,19.10
2022-09-23T12:56:20.998Z,19.10
2022-09-23T12:58:48.317Z,19.00
2022-09-23T13:01:14.914Z,19.10
2022-09-23T13:04:05.713Z,19.10
2022-09-23T13:06:41.061Z,19.20
2022-09-23T13:09:35.458Z,19.20
2022-09-23T13:12:06.187Z,19.30
2022-09-23T13:14:34.029Z,19.40
2022-09-23T13:17:01.438Z,19.30
2022-09-23T13:19:27.920Z,19.30
2022-09-23T13:21:54.426Z,19.30
2022-09-23T13:24:29.825Z,19.40
2022-09-23T13:27:13.274Z,19.20
2022-09-23T13:30:08.012Z,19.20
2022-09-23T13:32:49.558Z,19.20
2022-09-23T13:35:37.760Z,19.10
2022-09-23T13:38:25.853Z,19.00
2022-09-23T13:41:13.478Z,19.00
2022-09-23T13:43:42.511Z,18.90
2022-09-23T13:46:21.792Z,18.80
2022-09-23T13:48:51.400Z,18.80
2022-09-23T13:51:25.094Z,18.80
2022-09-23T13:53:56.734Z,18.80
2022-09-23T13:56:25.747Z,18.80
2022-09-23T13:58:53.032Z,18.70
2022-09-23T14:01:30.878Z,18.70
2022-09-23T14:03:58.480Z,18.70
2022-09-23T14:06:27.223Z,18.60
2022-09-23T14:08:54.631Z,18.70
2022-09-23T14:11:29.254Z,18.80
2022-09-23T14:13:57.815Z,18.70
2022-09-23T14:16:26.691Z,18.70
2022-09-23T14:18:59.054Z,18.60
2022-09-23T14:21:29.835Z,18.60
2022-09-23T14:23:56.913Z,18.60
2022-09-23T14:26:25.017Z,18.60
2022-09-23T14:28:52.147Z,18.70
2022-09-23T14:31:19.263Z,18.60
2022-09-23T14:33:46.793Z,18.60
2022-09-23T14:36:37.256Z,18.80
2022-09-23T14:39:12.130Z,18.70
2022-09-23T14:41:42.967Z,18.70
2022-09-23T14:44:22.860Z,18.50
2022-09-23T14:46:57.006Z,18.60
2022-09-23T14:49:24.793Z,18.50
2022-09-23T14:51:56.788Z,18.40
2022-09-23T14:54:45.662Z,18.50
2022-09-23T14:57:28.187Z,18.40
2022-09-23T15:00:14.230Z,18.30
2022-09-23T15:02:57.018Z,18.20
2022-09-23T15:05:39.370Z,18.30
2022-09-23T15:08:06.704Z,18.00
2022-09-23T15:10:38.873Z,17.90
2022-09-23T15:13:18.356Z,17.90
2022-09-23T15:15:45.776Z,17.70
2022-09-23T15:18:17.204Z,17.60
2022-09-23T15:20:53.735Z,17.60
2022-09-23T15:23:45.250Z,17.50
2022-09-23T15:26:16.774Z,17.50
2022-09-23T15:28:44.080Z,17.40
2022-09-23T15:31:16.604Z,17.50
2022-09-23T15:33:50.783Z,17.50
2022-09-23T15:36:28.729Z,17.50
2022-09-23T15:38:59.133Z,17.50
2022-09-23T15:41:25.660Z,17.40
2022-09-23T15:43:52.155Z,17.30
2022-09-23T15:46:29.821Z,17.10
2022-09-23T15:49:04.916Z,17.00
2022-09-23T15:51:32.288Z,17.00
2022-09-23T15:53:58.799Z,16.90
2022-09-23T15:56:27.345Z,16.80
2022-09-23T15:58:54.021Z,16.70
2022-09-23T16:01:28.416Z,16.70
2022-09-23T16:03:56.006Z,16.60
2022-09-23T16:06:24.185Z,16.70
2022-09-23T16:08:52.489Z,16.50
2022-09-23T16:11:22.884Z,16.40
2022-09-23T16:13:49.807Z,16.40
2022-09-23T16:16:17.121Z,16.40
2022-09-23T16:18:43.844Z,16.30
2022-09-23T16:21:12.991Z,16.20
2022-09-23T16:23:43.536Z,16.20
2022-09-23T16:26:25.895Z,16.00
2022-09-23T16:28:54.911Z,15.90
2022-09-23T16:31:25.235Z,15.90
2022-09-23T16:33:53.781Z,15.90
2022-09-23T16:36:22.461Z,15.70
2022-09-23T16:38:49.721Z,15.60
2022-09-23T16:41:16.655Z,15.60
2022-09-23T16:43:43.551Z,15.50
2022-09-23T16:46:15.200Z,15.40
2022-09-23T16:48:45.930Z,15.40
2022-09-23T16:51:20.284Z,15.20
2022-09-23T16:53:51.388Z,15.30
2022-09-23T16:56:24.264Z,15.00
2022-09-23T16:58:54.893Z,15.00
2022-09-23T17:01:43.047Z,14.90
2022-09-23T17:04:10.498Z,14.90
2022-09-23T17:06:46.630Z,14.80
2022-09-23T17:09:13.151Z,14.70
2022-09-23T17:11:40.466Z,14.70
2022-09-23T17:14:07.390Z,14.50
2022-09-23T17:16:35.384Z,14.50
2022-09-23T17:19:13.611Z,14.40
2022-09-23T17:21:40.204Z,14.50
2022-09-23T17:24:07.745Z,14.20
2022-09-23T17:26:34.694Z,14.30
2022-09-23T17:29:02.388Z,14.20
2022-09-23T17:31:29.091Z,14.30
2022-09-23T17:33:56.005Z,14.10
2022-09-23T17:36:22.582Z,14.20
2022-09-23T17:38:55.662Z,14.10
2022-09-23T17:41:22.472Z,13.90
2022-09-23T17:43:56.544Z,14.10
2022-09-23T17:46:24.121Z,13.90
2022-09-23T17:48:55.433Z,13.90
2022-09-23T17:51:22.571Z,13.90
2022-09-23T17:53:50.569Z,13.80
2022-09-23T17:56:19.632Z,13.70
2022-09-23T17:58:48.046Z,13.70
2022-09-23T18:01:23.027Z,13.70
2022-09-23T18:03:55.149Z,13.70
2022-09-23T18:06:23.467Z,13.50
2022-09-23T18:08:52.330Z,13.60
2022-09-23T18:11:24.729Z,13.40
2022-09-23T18:14:03.601Z,13.40
2022-09-23T18:16:39.820Z,13.50
2022-09-23T18:19:10.363Z,13.40
2022-09-23T18:21:40.484Z,13.40
2022-09-23T18:24:31.306Z,13.40
2022-09-23T18:26:59.333Z,13.40
2022-09-23T18:29:26.060Z,13.30
2022-09-23T18:31:52.595Z,13.20
2022-09-23T18:34:20.144Z,13.20
2022-09-23T18:36:47.153Z,13.30
2022-09-23T18:39:14.238Z,13.20
2022-09-23T18:41:41.674Z,13.30
2022-09-23T18:44:08.758Z,13.20
2022-09-23T18:46:35.994Z,13.30
2022-09-23T18:49:21.165Z,13.20
2022-09-23T18:52:06.111Z,13.30
2022-09-23T18:54:32.664Z,13.20
2022-09-23T18:56:59.400Z,13.10
2022-09-23T18:59:29.617Z,13.10
2022-09-23T19:01:57.686Z,13.10
2022-09-23T19:04:25.838Z,13.10
2022-09-23T19:06:53.840Z,13.10
2022-09-23T19:09:21.383Z,13.10
2022-09-23T19:11:53.062Z,13.10
2022-09-23T19:14:19.868Z,13.00
2022-09-23T19:16:49.477Z,13.10
2022-09-23T19:19:16.003Z,13.00
2022-09-23T19:21:42.490Z,13.00
2022-09-23T19:24:14.668Z,13.00
2022-09-23T19:26:42.554Z,12.90
2022-09-23T19:29:13.836Z,13.00
2022-09-23T19:31:42.028Z,13.00
2022-09-23T19:34:13.993Z,13.10
2022-09-23T19:36:43.474Z,12.90
2022-09-23T19:39:25.713Z,12.90
2022-09-23T19:41:55.778Z,12.90
2022-09-23T19:44:24.382Z,12.90
2022-09-23T19:46:55.967Z,12.90
2022-09-23T19:49:25.072Z,12.90
2022-09-23T19:51:56.218Z,13.00
2022-09-23T19:54:23.134Z,12.90
2022-09-23T19:56:50.255Z,12.80
2022-09-23T19:59:19.133Z,12.90
2022-09-23T20:01:47.366Z,12.90
2022-09-23T20:04:16.087Z,12.90
2022-09-23T20:06:43.250Z,12.90
2022-09-23T20:09:09.891Z,13.00
2022-09-23T20:11:36.888Z,12.80
2022-09-23T20:14:05.759Z,12.80
2022-09-23T20:16:36.332Z,12.80
2022-09-23T20:19:04.445Z,12.70
2022-09-23T20:21:32.775Z,12.70
2022-09-23T20:23:59.526Z,12.80
2022-09-23T20:26:45.115Z,12.70
2022-09-23T20:29:12.246Z,12.80
2022-09-23T20:31:41.217Z,12.80
2022-09-23T20:34:10.981Z,12.70
2022-09-23T20:36:39.427Z,12.70
2022-09-23T20:39:06.428Z,12.70
2022-09-23T20:41:38.183Z,12.70
2022-09-23T20:44:07.906Z,12.60
2022-09-23T20:46:36.131Z,12.60
2022-09-23T20:49:04.186Z,12.60
2022-09-23T20:51:33.108Z,12.50
2022-09-23T20:54:00.361Z,12.50
2022-09-23T20:56:27.469Z,12.50
2022-09-23T20:58:54.435Z,12.50
2022-09-23T21:01:22.322Z,12.40
2022-09-23T21:03:51.814Z,12.40
2022-09-23T21:06:19.886Z,12.30
2022-09-23T21:08:47.076Z,12.40
2022-09-23T21:11:16.394Z,12.40
2022-09-23T21:13:51.021Z,12.40
2022-09-23T21:16:22.342Z,12.40
2022-09-23T21:18:50.697Z,12.30
2022-09-23T21:21:19.374Z,12.40
2022-09-23T21:23:47.550Z,12.20
2022-09-23T21:26:17.697Z,12.30
2022-09-23T21:28:47.422Z,12.20
2022-09-23T21:31:23.247Z,12.20
2022-09-23T21:34:01.367Z,12.30
2022-09-23T21:36:30.110Z,12.30
2022-09-23T21:38:58.299Z,12.30
2022-09-23T21:41:25.438Z,12.30
2022-09-23T21:43:52.438Z,12.20
2022-09-23T21:46:20.371Z,12.40
2022-09-23T21:48:53.905Z,12.30
2022-09-23T21:51:25.800Z,12.30
2022-09-23T21:53:55.240Z,12.30
2022-09-23T21:56:27.744Z,12.30
2022-09-23T21:58:55.506Z,12.20
2022-09-23T22:01:24.929Z,12.20
2022-09-23T22:04:01.553Z,12.20
2022-09-23T22:06:29.280Z,12.30
2022-09-23T22:08:59.515Z,12.20
2022-09-23T22:11:50.349Z,12.20
2022-09-23T22:14:19.963Z,12.10
2022-09-23T22:16:46.555Z,12.10
2022-09-23T22:19:14.671Z,12.10
2022-09-23T22:21:43.755Z,12.10
2022-09-23T22:24:11.784Z,12.10
2022-09-23T22:26:43.336Z,12.00
2022-09-23T22:29:30.850Z,12.10
2022-09-23T22:32:17.059Z,12.10
2022-09-23T22:34:50.669Z,12.10
2022-09-23T22:37:21.351Z,12.00
2022-09-23T22:39:47.878Z,11.90
2022-09-23T22:42:14.944Z,12.00
2022-09-23T22:44:41.698Z,12.10
2022-09-23T22:47:09.744Z,12.10
2022-09-23T22:49:36.471Z,11.90
2022-09-23T22:52:04.371Z,12.00
2022-09-23T22:54:33.906Z,12.00
2022-09-23T22:57:03.830Z,12.00
2022-09-23T22:59:30.796Z,12.00
2022-09-23T23:02:00.291Z,12.00
2022-09-23T23:04:27.856Z,11.90
2022-09-23T23:06:54.788Z,11.90
2022-09-23T23:09:21.297Z,11.90
2022-09-23T23:11:48.255Z,11.90
2022-09-23T23:14:16.952Z,12.00
2022-09-23T23:16:45.460Z,11.90
2022-09-23T23:19:14.074Z,11.90
2022-09-23T23:21:45.083Z,12.00
2022-09-23T23:24:23.033Z,12.00
2022-09-23T23:26:50.455Z,11.90
2022-09-23T23:29:19.687Z,11.90
2022-09-23T23:31:47.322Z,11.90
2022-09-23T23:34:16.405Z,11.80
2022-09-23T23:36:44.481Z,11.80
2022-09-23T23:39:12.357Z,11.90
2022-09-23T23:41:42.784Z,11.90
2022-09-23T23:44:12.131Z,11.90
2022-09-23T23:46:38.707Z,11.90
2022-09-23T23:49:07.081Z,12.00
2022-09-23T23:51:34.024Z,11.90
2022-09-23T23:54:00.843Z,11.90
2022-09-23T23:56:30.009Z,11.80
2022-09-23T23:59:03.414Z,11.90
